sensor_id;sensor_type;location;lat;lon;timestamp;P1;durP1;ratioP1;P2;durP2;ratioP2
7158;SDS011;63175;52.374;13.132;2023-02-24T00:01:13;35.17;;;14.80;;
7158;SDS011;63175;52.374;13.132;2023-02-24T00:03:50;34.20;;;15.37;;
7158;SDS011;63175;52.374;13.132;2023-02-24T00:06:17;27.00;;;12.73;;
7158;SDS011;63175;52.374;13.132;2023-02-24T00:08:44;38.10;;;15.60;;
7158;SDS011;63175;52.374;13.132;2023-02-24T00:11:12;42.07;;;17.00;;
7158;SDS011;63175;52.374;13.132;2023-02-24T00:13:41;33.70;;;14.67;;
7158;SDS011;63175;52.374;13.132;2023-02-24T00:16:11;30.30;;;14.20;;
7158;SDS011;63175;52.374;13.132;2023-02-24T00:18:40;36.97;;;16.00;;
7158;SDS011;63175;52.374;13.132;2023-02-24T00:21:10;36.37;;;16.10;;
7158;SDS011;63175;52.374;13.132;2023-02-24T00:23:39;36.70;;;14.97;;
7158;SDS011;63175;52.374;13.132;2023-02-24T00:26:08;28.87;;;12.83;;
7158;SDS011;63175;52.374;13.132;2023-02-24T00:28:36;29.17;;;14.13;;
7158;SDS011;63175;52.374;13.132;2023-02-24T00:31:04;34.00;;;14.23;;
7158;SDS011;63175;52.374;13.132;2023-02-24T00:33:31;36.53;;;14.80;;
7158;SDS011;63175;52.374;13.132;2023-02-24T00:36:05;40.80;;;15.30;;
7158;SDS011;63175;52.374;13.132;2023-02-24T00:38:34;28.90;;;14.10;;
7158;SDS011;63175;52.374;13.132;2023-02-24T00:41:07;33.77;;;13.20;;
7158;SDS011;63175;52.374;13.132;2023-02-24T00:43:36;34.80;;;13.80;;
7158;SDS011;63175;52.374;13.132;2023-02-24T00:46:03;40.60;;;14.83;;
7158;SDS011;63175;52.374;13.132;2023-02-24T00:48:35;40.40;;;14.40;;
7158;SDS011;63175;52.374;13.132;2023-02-24T00:51:05;36.67;;;14.80;;
7158;SDS011;63175;52.374;13.132;2023-02-24T00:53:35;28.93;;;12.90;;
7158;SDS011;63175;52.374;13.132;2023-02-24T00:56:03;45.00;;;14.87;;
7158;SDS011;63175;52.374;13.132;2023-02-24T00:58:31;30.47;;;13.10;;
7158;SDS011;63175;52.374;13.132;2023-02-24T01:01:00;25.07;;;10.20;;
7158;SDS011;63175;52.374;13.132;2023-02-24T01:03:28;26.40;;;8.47;;
7158;SDS011;63175;52.374;13.132;2023-02-24T01:05:58;19.23;;;7.83;;
7158;SDS011;63175;52.374;13.132;2023-02-24T01:08:27;34.93;;;8.53;;
7158;SDS011;63175;52.374;13.132;2023-02-24T01:10:56;19.57;;;6.17;;
7158;SDS011;63175;52.374;13.132;2023-02-24T01:13:36;24.50;;;6.83;;
7158;SDS011;63175;52.374;13.132;2023-02-24T01:16:04;14.90;;;6.23;;
7158;SDS011;63175;52.374;13.132;2023-02-24T01:18:31;15.43;;;5.67;;
7158;SDS011;63175;52.374;13.132;2023-02-24T01:20:58;12.83;;;4.70;;
7158;SDS011;63175;52.374;13.132;2023-02-24T01:23:25;20.50;;;5.37;;
7158;SDS011;63175;52.374;13.132;2023-02-24T01:25:52;16.20;;;5.40;;
7158;SDS011;63175;52.374;13.132;2023-02-24T01:28:23;19.37;;;5.13;;
7158;SDS011;63175;52.374;13.132;2023-02-24T01:30:50;13.20;;;5.27;;
7158;SDS011;63175;52.374;13.132;2023-02-24T01:33:18;24.27;;;4.27;;
7158;SDS011;63175;52.374;13.132;2023-02-24T01:35:45;22.93;;;4.43;;
7158;SDS011;63175;52.374;13.132;2023-02-24T01:38:12;11.57;;;3.10;;
7158;SDS011;63175;52.374;13.132;2023-02-24T01:40:39;15.10;;;3.50;;
7158;SDS011;63175;52.374;13.132;2023-02-24T01:43:08;8.70;;;4.40;;
7158;SDS011;63175;52.374;13.132;2023-02-24T01:45:38;13.03;;;3.47;;
7158;SDS011;63175;52.374;13.132;2023-02-24T01:48:05;19.17;;;3.40;;
7158;SDS011;63175;52.374;13.132;2023-02-24T01:50:35;17.20;;;4.43;;
7158;SDS011;63175;52.374;13.132;2023-02-24T01:53:03;10.23;;;2.57;;
7158;SDS011;63175;52.374;13.132;2023-02-24T01:55:33;9.40;;;2.73;;
7158;SDS011;63175;52.374;13.132;2023-02-24T01:58:04;7.10;;;2.37;;
7158;SDS011;63175;52.374;13.132;2023-02-24T02:00:35;22.03;;;3.87;;
7158;SDS011;63175;52.374;13.132;2023-02-24T02:03:10;8.27;;;2.00;;
7158;SDS011;63175;52.374;13.132;2023-02-24T02:05:43;11.50;;;2.73;;
7158;SDS011;63175;52.374;13.132;2023-02-24T02:08:12;6.70;;;2.07;;
7158;SDS011;63175;52.374;13.132;2023-02-24T02:10:40;9.40;;;2.40;;
7158;SDS011;63175;52.374;13.132;2023-02-24T02:13:09;6.03;;;2.27;;
7158;SDS011;63175;52.374;13.132;2023-02-24T02:15:42;9.23;;;2.53;;
7158;SDS011;63175;52.374;13.132;2023-02-24T02:18:16;9.23;;;2.03;;
7158;SDS011;63175;52.374;13.132;2023-02-24T02:21:06;11.43;;;2.23;;
7158;SDS011;63175;52.374;13.132;2023-02-24T02:24:10;11.90;;;2.97;;
7158;SDS011;63175;52.374;13.132;2023-02-24T02:27:03;10.73;;;2.23;;
7158;SDS011;63175;52.374;13.132;2023-02-24T02:32:59;7.80;;;2.20;;
7158;SDS011;63175;52.374;13.132;2023-02-24T02:35:48;8.30;;;1.83;;
7158;SDS011;63175;52.374;13.132;2023-02-24T02:38:25;9.37;;;1.90;;
7158;SDS011;63175;52.374;13.132;2023-02-24T02:41:00;12.03;;;2.20;;
7158;SDS011;63175;52.374;13.132;2023-02-24T02:43:33;7.43;;;3.20;;
7158;SDS011;63175;52.374;13.132;2023-02-24T02:46:07;16.43;;;2.50;;
7158;SDS011;63175;52.374;13.132;2023-02-24T02:48:39;9.13;;;1.97;;
7158;SDS011;63175;52.374;13.132;2023-02-24T02:51:16;5.90;;;2.07;;
7158;SDS011;63175;52.374;13.132;2023-02-24T02:53:48;12.10;;;2.90;;
7158;SDS011;63175;52.374;13.132;2023-02-24T02:56:22;9.50;;;2.30;;
7158;SDS011;63175;52.374;13.132;2023-02-24T02:58:54;9.23;;;2.37;;
7158;SDS011;63175;52.374;13.132;2023-02-24T03:01:25;10.50;;;1.50;;
7158;SDS011;63175;52.374;13.132;2023-02-24T03:03:55;6.13;;;1.70;;
7158;SDS011;63175;52.374;13.132;2023-02-24T03:06:27;3.63;;;1.40;;
7158;SDS011;63175;52.374;13.132;2023-02-24T03:08:58;13.83;;;2.60;;
7158;SDS011;63175;52.374;13.132;2023-02-24T03:11:35;11.00;;;2.60;;
7158;SDS011;63175;52.374;13.132;2023-02-24T03:14:02;6.30;;;1.73;;
7158;SDS011;63175;52.374;13.132;2023-02-24T03:16:36;8.37;;;1.70;;
7158;SDS011;63175;52.374;13.132;2023-02-24T03:19:05;9.93;;;1.90;;
7158;SDS011;63175;52.374;13.132;2023-02-24T03:21:37;6.80;;;1.83;;
7158;SDS011;63175;52.374;13.132;2023-02-24T03:24:06;5.53;;;1.50;;
7158;SDS011;63175;52.374;13.132;2023-02-24T03:26:36;9.53;;;3.00;;
7158;SDS011;63175;52.374;13.132;2023-02-24T03:29:08;7.67;;;2.27;;
7158;SDS011;63175;52.374;13.132;2023-02-24T03:31:42;9.77;;;2.27;;
7158;SDS011;63175;52.374;13.132;2023-02-24T03:34:13;17.37;;;3.93;;
7158;SDS011;63175;52.374;13.132;2023-02-24T03:36:46;7.60;;;2.13;;
7158;SDS011;63175;52.374;13.132;2023-02-24T03:39:13;7.90;;;2.10;;
7158;SDS011;63175;52.374;13.132;2023-02-24T03:41:42;5.23;;;1.63;;
7158;SDS011;63175;52.374;13.132;2023-02-24T03:44:13;8.17;;;2.10;;
7158;SDS011;63175;52.374;13.132;2023-02-24T03:46:40;13.53;;;2.30;;
7158;SDS011;63175;52.374;13.132;2023-02-24T03:49:09;8.63;;;2.10;;
7158;SDS011;63175;52.374;13.132;2023-02-24T03:51:38;5.90;;;2.30;;
7158;SDS011;63175;52.374;13.132;2023-02-24T03:54:15;8.70;;;2.47;;
7158;SDS011;63175;52.374;13.132;2023-02-24T03:56:58;11.33;;;1.90;;
7158;SDS011;63175;52.374;13.132;2023-02-24T03:59:39;11.90;;;2.00;;
7158;SDS011;63175;52.374;13.132;2023-02-24T04:02:13;16.70;;;2.63;;
7158;SDS011;63175;52.374;13.132;2023-02-24T04:04:46;6.60;;;1.77;;
7158;SDS011;63175;52.374;13.132;2023-02-24T04:07:19;6.50;;;1.47;;
7158;SDS011;63175;52.374;13.132;2023-02-24T04:10:02;10.83;;;1.70;;
7158;SDS011;63175;52.374;13.132;2023-02-24T04:12:35;4.37;;;1.07;;
7158;SDS011;63175;52.374;13.132;2023-02-24T04:15:08;2.50;;;1.43;;
7158;SDS011;63175;52.374;13.132;2023-02-24T04:17:41;8.80;;;1.40;;
7158;SDS011;63175;52.374;13.132;2023-02-24T04:20:11;5.40;;;1.27;;
7158;SDS011;63175;52.374;13.132;2023-02-24T04:22:41;9.23;;;2.10;;
7158;SDS011;63175;52.374;13.132;2023-02-24T04:25:14;13.37;;;1.60;;
7158;SDS011;63175;52.374;13.132;2023-02-24T04:27:42;12.00;;;1.83;;
7158;SDS011;63175;52.374;13.132;2023-02-24T04:30:11;16.67;;;2.13;;
7158;SDS011;63175;52.374;13.132;2023-02-24T04:32:39;6.10;;;1.77;;
7158;SDS011;63175;52.374;13.132;2023-02-24T04:35:09;3.77;;;1.50;;
7158;SDS011;63175;52.374;13.132;2023-02-24T04:37:38;4.10;;;1.63;;
7158;SDS011;63175;52.374;13.132;2023-02-24T04:40:10;10.23;;;2.37;;
7158;SDS011;63175;52.374;13.132;2023-02-24T04:42:42;6.27;;;1.93;;
7158;SDS011;63175;52.374;13.132;2023-02-24T04:45:13;3.73;;;1.73;;
7158;SDS011;63175;52.374;13.132;2023-02-24T04:47:41;3.70;;;1.17;;
7158;SDS011;63175;52.374;13.132;2023-02-24T04:50:13;8.77;;;1.73;;
7158;SDS011;63175;52.374;13.132;2023-02-24T04:52:47;4.87;;;1.63;;
7158;SDS011;63175;52.374;13.132;2023-02-24T04:55:15;4.57;;;1.13;;
7158;SDS011;63175;52.374;13.132;2023-02-24T04:57:44;5.97;;;1.53;;
7158;SDS011;63175;52.374;13.132;2023-02-24T05:00:12;3.77;;;1.60;;
7158;SDS011;63175;52.374;13.132;2023-02-24T05:02:45;17.00;;;3.10;;
7158;SDS011;63175;52.374;13.132;2023-02-24T05:05:13;5.33;;;1.70;;
7158;SDS011;63175;52.374;13.132;2023-02-24T05:07:40;8.77;;;1.13;;
7158;SDS011;63175;52.374;13.132;2023-02-24T05:10:11;4.63;;;1.50;;
7158;SDS011;63175;52.374;13.132;2023-02-24T05:12:39;10.30;;;1.63;;
7158;SDS011;63175;52.374;13.132;2023-02-24T05:15:08;6.43;;;1.03;;
7158;SDS011;63175;52.374;13.132;2023-02-24T05:17:36;2.30;;;1.30;;
7158;SDS011;63175;52.374;13.132;2023-02-24T05:20:05;4.40;;;1.40;;
7158;SDS011;63175;52.374;13.132;2023-02-24T05:22:51;7.00;;;2.37;;
7158;SDS011;63175;52.374;13.132;2023-02-24T05:25:18;4.87;;;1.83;;
7158;SDS011;63175;52.374;13.132;2023-02-24T05:27:45;6.47;;;2.13;;
7158;SDS011;63175;52.374;13.132;2023-02-24T05:30:14;7.80;;;1.80;;
7158;SDS011;63175;52.374;13.132;2023-02-24T05:32:43;9.67;;;1.70;;
7158;SDS011;63175;52.374;13.132;2023-02-24T05:35:10;4.60;;;0.93;;
7158;SDS011;63175;52.374;13.132;2023-02-24T05:37:37;4.07;;;1.13;;
7158;SDS011;63175;52.374;13.132;2023-02-24T05:40:06;4.43;;;1.27;;
7158;SDS011;63175;52.374;13.132;2023-02-24T05:42:38;5.33;;;1.47;;
7158;SDS011;63175;52.374;13.132;2023-02-24T05:45:06;7.40;;;1.37;;
7158;SDS011;63175;52.374;13.132;2023-02-24T05:47:36;4.93;;;1.07;;
7158;SDS011;63175;52.374;13.132;2023-02-24T05:50:04;3.47;;;1.27;;
7158;SDS011;63175;52.374;13.132;2023-02-24T05:52:33;4.37;;;1.30;;
7158;SDS011;63175;52.374;13.132;2023-02-24T05:55:01;4.07;;;1.10;;
7158;SDS011;63175;52.374;13.132;2023-02-24T05:57:31;8.80;;;1.70;;
7158;SDS011;63175;52.374;13.132;2023-02-24T05:59:59;12.50;;;2.07;;
7158;SDS011;63175;52.374;13.132;2023-02-24T06:02:36;8.80;;;1.37;;
7158;SDS011;63175;52.374;13.132;2023-02-24T06:05:03;3.80;;;1.23;;
7158;SDS011;63175;52.374;13.132;2023-02-24T06:07:33;10.30;;;1.90;;
7158;SDS011;63175;52.374;13.132;2023-02-24T06:10:00;10.07;;;1.20;;
7158;SDS011;63175;52.374;13.132;2023-02-24T06:12:29;5.50;;;0.90;;
7158;SDS011;63175;52.374;13.132;2023-02-24T06:14:57;6.67;;;1.40;;
7158;SDS011;63175;52.374;13.132;2023-02-24T06:17:25;5.83;;;1.57;;
7158;SDS011;63175;52.374;13.132;2023-02-24T06:19:53;6.67;;;1.37;;
7158;SDS011;63175;52.374;13.132;2023-02-24T06:22:21;5.57;;;1.47;;
7158;SDS011;63175;52.374;13.132;2023-02-24T06:24:50;9.27;;;0.90;;
7158;SDS011;63175;52.374;13.132;2023-02-24T06:27:18;3.97;;;1.07;;
7158;SDS011;63175;52.374;13.132;2023-02-24T06:29:48;5.10;;;1.50;;
7158;SDS011;63175;52.374;13.132;2023-02-24T06:32:18;4.87;;;1.60;;
7158;SDS011;63175;52.374;13.132;2023-02-24T06:34:46;3.73;;;1.27;;
7158;SDS011;63175;52.374;13.132;2023-02-24T06:37:14;5.53;;;1.10;;
7158;SDS011;63175;52.374;13.132;2023-02-24T06:39:42;2.90;;;0.97;;
7158;SDS011;63175;52.374;13.132;2023-02-24T06:42:10;3.47;;;1.13;;
7158;SDS011;63175;52.374;13.132;2023-02-24T06:44:38;4.30;;;1.90;;
7158;SDS011;63175;52.374;13.132;2023-02-24T06:47:06;6.77;;;1.10;;
7158;SDS011;63175;52.374;13.132;2023-02-24T06:49:35;5.27;;;1.93;;
7158;SDS011;63175;52.374;13.132;2023-02-24T06:52:02;7.70;;;2.23;;
7158;SDS011;63175;52.374;13.132;2023-02-24T06:54:31;4.90;;;1.37;;
7158;SDS011;63175;52.374;13.132;2023-02-24T06:56:59;3.27;;;0.80;;
7158;SDS011;63175;52.374;13.132;2023-02-24T06:59:27;7.00;;;1.43;;
7158;SDS011;63175;52.374;13.132;2023-02-24T07:01:54;7.23;;;1.20;;
7158;SDS011;63175;52.374;13.132;2023-02-24T07:04:22;4.50;;;1.47;;
7158;SDS011;63175;52.374;13.132;2023-02-24T07:06:50;3.70;;;1.23;;
7158;SDS011;63175;52.374;13.132;2023-02-24T07:09:20;9.03;;;1.97;;
7158;SDS011;63175;52.374;13.132;2023-02-24T07:11:50;8.67;;;1.50;;
7158;SDS011;63175;52.374;13.132;2023-02-24T07:14:20;6.10;;;1.77;;
7158;SDS011;63175;52.374;13.132;2023-02-24T07:16:49;6.40;;;1.30;;
7158;SDS011;63175;52.374;13.132;2023-02-24T07:19:19;7.13;;;1.27;;
7158;SDS011;63175;52.374;13.132;2023-02-24T07:21:47;6.00;;;1.40;;
7158;SDS011;63175;52.374;13.132;2023-02-24T07:24:17;6.63;;;1.03;;
7158;SDS011;63175;52.374;13.132;2023-02-24T07:26:55;3.33;;;1.13;;
7158;SDS011;63175;52.374;13.132;2023-02-24T07:29:23;5.47;;;1.30;;
7158;SDS011;63175;52.374;13.132;2023-02-24T07:31:51;6.83;;;1.27;;
7158;SDS011;63175;52.374;13.132;2023-02-24T07:34:21;3.53;;;1.10;;
7158;SDS011;63175;52.374;13.132;2023-02-24T07:36:52;4.73;;;1.20;;
7158;SDS011;63175;52.374;13.132;2023-02-24T07:39:20;4.40;;;2.00;;
7158;SDS011;63175;52.374;13.132;2023-02-24T07:41:48;4.10;;;1.10;;
7158;SDS011;63175;52.374;13.132;2023-02-24T07:44:17;8.03;;;1.23;;
7158;SDS011;63175;52.374;13.132;2023-02-24T07:46:45;3.47;;;1.40;;
7158;SDS011;63175;52.374;13.132;2023-02-24T07:49:13;2.70;;;1.17;;
7158;SDS011;63175;52.374;13.132;2023-02-24T07:51:43;6.20;;;1.33;;
7158;SDS011;63175;52.374;13.132;2023-02-24T07:54:11;13.23;;;1.40;;
7158;SDS011;63175;52.374;13.132;2023-02-24T07:56:39;3.40;;;1.53;;
7158;SDS011;63175;52.374;13.132;2023-02-24T07:59:13;2.00;;;1.30;;
7158;SDS011;63175;52.374;13.132;2023-02-24T08:01:44;6.90;;;1.80;;
7158;SDS011;63175;52.374;13.132;2023-02-24T08:04:15;3.53;;;1.43;;
7158;SDS011;63175;52.374;13.132;2023-02-24T08:06:44;3.13;;;1.23;;
7158;SDS011;63175;52.374;13.132;2023-02-24T08:09:15;2.90;;;1.23;;
7158;SDS011;63175;52.374;13.132;2023-02-24T08:11:45;3.33;;;1.00;;
7158;SDS011;63175;52.374;13.132;2023-02-24T08:14:16;6.57;;;1.27;;
7158;SDS011;63175;52.374;13.132;2023-02-24T08:16:45;4.57;;;0.93;;
7158;SDS011;63175;52.374;13.132;2023-02-24T08:19:14;3.43;;;1.80;;
7158;SDS011;63175;52.374;13.132;2023-02-24T08:21:45;6.87;;;1.50;;
7158;SDS011;63175;52.374;13.132;2023-02-24T08:24:15;9.00;;;1.70;;
7158;SDS011;63175;52.374;13.132;2023-02-24T08:26:44;5.90;;;1.80;;
7158;SDS011;63175;52.374;13.132;2023-02-24T08:29:27;14.87;;;2.00;;
7158;SDS011;63175;52.374;13.132;2023-02-24T08:31:57;7.07;;;1.50;;
7158;SDS011;63175;52.374;13.132;2023-02-24T08:34:23;3.13;;;1.77;;
7158;SDS011;63175;52.374;13.132;2023-02-24T08:36:56;4.97;;;1.53;;
7158;SDS011;63175;52.374;13.132;2023-02-24T08:39:22;4.33;;;1.40;;
7158;SDS011;63175;52.374;13.132;2023-02-24T08:41:54;2.70;;;1.33;;
7158;SDS011;63175;52.374;13.132;2023-02-24T08:44:22;3.10;;;1.23;;
7158;SDS011;63175;52.374;13.132;2023-02-24T08:46:51;8.40;;;1.80;;
7158;SDS011;63175;52.374;13.132;2023-02-24T08:49:20;3.57;;;1.90;;
7158;SDS011;63175;52.374;13.132;2023-02-24T08:51:49;4.93;;;1.47;;
7158;SDS011;63175;52.374;13.132;2023-02-24T08:54:18;7.70;;;1.43;;
7158;SDS011;63175;52.374;13.132;2023-02-24T08:56:51;4.10;;;1.60;;
7158;SDS011;63175;52.374;13.132;2023-02-24T08:59:21;4.17;;;1.33;;
7158;SDS011;63175;52.374;13.132;2023-02-24T09:02:14;6.87;;;1.37;;
7158;SDS011;63175;52.374;13.132;2023-02-24T09:04:53;1.67;;;1.20;;
7158;SDS011;63175;52.374;13.132;2023-02-24T09:07:22;2.90;;;1.37;;
7158;SDS011;63175;52.374;13.132;2023-02-24T09:09:51;2.87;;;1.40;;
7158;SDS011;63175;52.374;13.132;2023-02-24T09:12:20;2.57;;;1.20;;
7158;SDS011;63175;52.374;13.132;2023-02-24T09:14:50;6.93;;;1.73;;
7158;SDS011;63175;52.374;13.132;2023-02-24T09:17:20;4.80;;;1.23;;
7158;SDS011;63175;52.374;13.132;2023-02-24T09:20:06;6.13;;;1.77;;
7158;SDS011;63175;52.374;13.132;2023-02-24T09:22:52;4.83;;;1.43;;
7158;SDS011;63175;52.374;13.132;2023-02-24T09:25:27;5.60;;;1.70;;
7158;SDS011;63175;52.374;13.132;2023-02-24T09:28:06;5.53;;;1.67;;
7158;SDS011;63175;52.374;13.132;2023-02-24T09:30:35;4.13;;;1.90;;
7158;SDS011;63175;52.374;13.132;2023-02-24T09:33:13;6.27;;;1.70;;
7158;SDS011;63175;52.374;13.132;2023-02-24T09:35:56;3.80;;;1.20;;
7158;SDS011;63175;52.374;13.132;2023-02-24T09:38:37;2.80;;;1.00;;
7158;SDS011;63175;52.374;13.132;2023-02-24T09:41:23;2.33;;;1.20;;
7158;SDS011;63175;52.374;13.132;2023-02-24T09:43:57;12.90;;;1.87;;
7158;SDS011;63175;52.374;13.132;2023-02-24T09:46:32;3.87;;;1.17;;
7158;SDS011;63175;52.374;13.132;2023-02-24T09:49:06;3.23;;;1.10;;
7158;SDS011;63175;52.374;13.132;2023-02-24T09:51:41;4.83;;;1.63;;
7158;SDS011;63175;52.374;13.132;2023-02-24T09:54:12;4.97;;;1.40;;
7158;SDS011;63175;52.374;13.132;2023-02-24T09:56:43;3.00;;;0.80;;
7158;SDS011;63175;52.374;13.132;2023-02-24T09:59:22;2.80;;;0.80;;
7158;SDS011;63175;52.374;13.132;2023-02-24T10:02:00;3.57;;;0.93;;
7158;SDS011;63175;52.374;13.132;2023-02-24T10:04:48;3.60;;;0.87;;
7158;SDS011;63175;52.374;13.132;2023-02-24T10:07:33;4.20;;;0.73;;
7158;SDS011;63175;52.374;13.132;2023-02-24T10:10:04;3.23;;;0.80;;
7158;SDS011;63175;52.374;13.132;2023-02-24T10:12:52;3.90;;;0.80;;
7158;SDS011;63175;52.374;13.132;2023-02-24T10:15:26;3.90;;;0.90;;
7158;SDS011;63175;52.374;13.132;2023-02-24T10:18:22;5.20;;;1.00;;
7158;SDS011;63175;52.374;13.132;2023-02-24T10:20:54;9.17;;;1.30;;
7158;SDS011;63175;52.374;13.132;2023-02-24T10:23:28;3.33;;;0.87;;
7158;SDS011;63175;52.374;13.132;2023-02-24T10:26:10;3.90;;;1.13;;
7158;SDS011;63175;52.374;13.132;2023-02-24T10:28:56;0.70;;;0.70;;
7158;SDS011;63175;52.374;13.132;2023-02-24T10:31:33;6.93;;;1.00;;
7158;SDS011;63175;52.374;13.132;2023-02-24T10:34:08;4.30;;;1.00;;
7158;SDS011;63175;52.374;13.132;2023-02-24T10:36:36;2.77;;;1.00;;
7158;SDS011;63175;52.374;13.132;2023-02-24T10:39:12;2.20;;;0.90;;
7158;SDS011;63175;52.374;13.132;2023-02-24T10:41:45;1.20;;;0.90;;
7158;SDS011;63175;52.374;13.132;2023-02-24T10:44:18;3.60;;;1.17;;
7158;SDS011;63175;52.374;13.132;2023-02-24T10:46:57;3.40;;;1.00;;
7158;SDS011;63175;52.374;13.132;2023-02-24T10:49:38;5.90;;;1.27;;
7158;SDS011;63175;52.374;13.132;2023-02-24T10:52:21;5.43;;;1.57;;
7158;SDS011;63175;52.374;13.132;2023-02-24T10:55:18;2.50;;;1.07;;
7158;SDS011;63175;52.374;13.132;2023-02-24T10:57:53;4.23;;;1.03;;
7158;SDS011;63175;52.374;13.132;2023-02-24T11:00:36;4.20;;;0.60;;
7158;SDS011;63175;52.374;13.132;2023-02-24T11:03:22;1.37;;;0.60;;
7158;SDS011;63175;52.374;13.132;2023-02-24T11:06:00;4.87;;;1.17;;
7158;SDS011;63175;52.374;13.132;2023-02-24T11:08:44;5.20;;;1.20;;
7158;SDS011;63175;52.374;13.132;2023-02-24T11:11:34;3.47;;;1.10;;
7158;SDS011;63175;52.374;13.132;2023-02-24T11:14:17;2.17;;;0.90;;
7158;SDS011;63175;52.374;13.132;2023-02-24T11:17:01;3.33;;;1.00;;
7158;SDS011;63175;52.374;13.132;2023-02-24T11:19:42;1.60;;;0.90;;
7158;SDS011;63175;52.374;13.132;2023-02-24T11:22:14;2.60;;;1.40;;
7158;SDS011;63175;52.374;13.132;2023-02-24T11:24:43;4.40;;;1.17;;
7158;SDS011;63175;52.374;13.132;2023-02-24T11:27:12;2.07;;;0.80;;
7158;SDS011;63175;52.374;13.132;2023-02-24T11:29:44;6.20;;;1.10;;
7158;SDS011;63175;52.374;13.132;2023-02-24T11:32:25;1.33;;;0.60;;
7158;SDS011;63175;52.374;13.132;2023-02-24T11:35:03;3.23;;;1.30;;
7158;SDS011;63175;52.374;13.132;2023-02-24T11:37:38;6.57;;;1.10;;
7158;SDS011;63175;52.374;13.132;2023-02-24T11:40:10;1.20;;;0.70;;
7158;SDS011;63175;52.374;13.132;2023-02-24T11:42:43;4.30;;;1.40;;
7158;SDS011;63175;52.374;13.132;2023-02-24T11:45:18;1.73;;;0.80;;
7158;SDS011;63175;52.374;13.132;2023-02-24T11:47:56;3.90;;;0.90;;
7158;SDS011;63175;52.374;13.132;2023-02-24T11:50:29;3.97;;;1.00;;
7158;SDS011;63175;52.374;13.132;2023-02-24T11:53:11;4.70;;;0.90;;
7158;SDS011;63175;52.374;13.132;2023-02-24T11:55:54;4.73;;;1.40;;
7158;SDS011;63175;52.374;13.132;2023-02-24T11:58:28;4.80;;;1.17;;
7158;SDS011;63175;52.374;13.132;2023-02-24T12:01:05;1.27;;;0.83;;
7158;SDS011;63175;52.374;13.132;2023-02-24T12:03:40;3.30;;;1.00;;
7158;SDS011;63175;52.374;13.132;2023-02-24T12:06:16;3.90;;;0.97;;
7158;SDS011;63175;52.374;13.132;2023-02-24T12:08:48;2.40;;;0.90;;
7158;SDS011;63175;52.374;13.132;2023-02-24T12:11:19;1.03;;;0.80;;
7158;SDS011;63175;52.374;13.132;2023-02-24T12:13:58;2.33;;;1.23;;
7158;SDS011;63175;52.374;13.132;2023-02-24T12:16:33;2.43;;;0.90;;
7158;SDS011;63175;52.374;13.132;2023-02-24T12:19:05;4.50;;;1.10;;
7158;SDS011;63175;52.374;13.132;2023-02-24T12:21:42;2.97;;;0.83;;
7158;SDS011;63175;52.374;13.132;2023-02-24T12:24:14;7.17;;;0.93;;
7158;SDS011;63175;52.374;13.132;2023-02-24T12:26:43;3.97;;;0.90;;
7158;SDS011;63175;52.374;13.132;2023-02-24T12:29:27;3.37;;;1.47;;
7158;SDS011;63175;52.374;13.132;2023-02-24T12:32:08;3.40;;;1.00;;
7158;SDS011;63175;52.374;13.132;2023-02-24T12:34:43;7.97;;;1.47;;
7158;SDS011;63175;52.374;13.132;2023-02-24T12:37:21;2.27;;;1.50;;
7158;SDS011;63175;52.374;13.132;2023-02-24T12:39:58;3.80;;;1.67;;
7158;SDS011;63175;52.374;13.132;2023-02-24T12:42:38;1.23;;;1.13;;
7158;SDS011;63175;52.374;13.132;2023-02-24T12:45:14;1.53;;;1.40;;
7158;SDS011;63175;52.374;13.132;2023-02-24T12:47:48;5.20;;;1.47;;
7158;SDS011;63175;52.374;13.132;2023-02-24T12:50:26;3.10;;;1.50;;
7158;SDS011;63175;52.374;13.132;2023-02-24T12:53:04;1.47;;;1.10;;
7158;SDS011;63175;52.374;13.132;2023-02-24T12:55:39;1.90;;;1.27;;
7158;SDS011;63175;52.374;13.132;2023-02-24T12:58:12;1.73;;;1.27;;
7158;SDS011;63175;52.374;13.132;2023-02-24T13:00:56;2.20;;;1.17;;
7158;SDS011;63175;52.374;13.132;2023-02-24T13:03:33;4.67;;;1.20;;
7158;SDS011;63175;52.374;13.132;2023-02-24T13:06:13;2.50;;;1.10;;
7158;SDS011;63175;52.374;13.132;2023-02-24T13:08:47;2.67;;;1.30;;
7158;SDS011;63175;52.374;13.132;2023-02-24T13:11:24;2.87;;;1.00;;
7158;SDS011;63175;52.374;13.132;2023-02-24T13:14:02;1.23;;;1.00;;
7158;SDS011;63175;52.374;13.132;2023-02-24T13:16:38;1.10;;;0.80;;
7158;SDS011;63175;52.374;13.132;2023-02-24T13:19:06;3.93;;;1.00;;
7158;SDS011;63175;52.374;13.132;2023-02-24T13:21:55;6.33;;;1.40;;
7158;SDS011;63175;52.374;13.132;2023-02-24T13:24:26;2.50;;;1.00;;
7158;SDS011;63175;52.374;13.132;2023-02-24T13:27:02;1.90;;;0.90;;
7158;SDS011;63175;52.374;13.132;2023-02-24T13:29:40;2.70;;;0.97;;
7158;SDS011;63175;52.374;13.132;2023-02-24T13:32:22;5.17;;;1.10;;
7158;SDS011;63175;52.374;13.132;2023-02-24T13:34:52;2.40;;;1.10;;
7158;SDS011;63175;52.374;13.132;2023-02-24T13:37:25;4.00;;;1.33;;
7158;SDS011;63175;52.374;13.132;2023-02-24T13:39:54;4.00;;;1.30;;
7158;SDS011;63175;52.374;13.132;2023-02-24T13:42:22;6.27;;;1.50;;
7158;SDS011;63175;52.374;13.132;2023-02-24T13:44:51;2.80;;;1.10;;
7158;SDS011;63175;52.374;13.132;2023-02-24T13:47:34;1.70;;;1.17;;
7158;SDS011;63175;52.374;13.132;2023-02-24T13:50:39;2.97;;;1.50;;
7158;SDS011;63175;52.374;13.132;2023-02-24T13:53:26;1.57;;;0.80;;
7158;SDS011;63175;52.374;13.132;2023-02-24T13:56:15;2.90;;;1.70;;
7158;SDS011;63175;52.374;13.132;2023-02-24T13:58:53;3.63;;;0.90;;
7158;SDS011;63175;52.374;13.132;2023-02-24T14:01:43;1.23;;;1.10;;
7158;SDS011;63175;52.374;13.132;2023-02-24T14:04:14;2.63;;;1.13;;
7158;SDS011;63175;52.374;13.132;2023-02-24T14:06:46;1.03;;;0.73;;
7158;SDS011;63175;52.374;13.132;2023-02-24T14:09:17;1.03;;;0.90;;
7158;SDS011;63175;52.374;13.132;2023-02-24T14:11:49;1.67;;;1.10;;
7158;SDS011;63175;52.374;13.132;2023-02-24T14:14:19;3.87;;;0.90;;
7158;SDS011;63175;52.374;13.132;2023-02-24T14:16:46;3.27;;;1.20;;
7158;SDS011;63175;52.374;13.132;2023-02-24T14:19:17;1.73;;;0.90;;
7158;SDS011;63175;52.374;13.132;2023-02-24T14:21:49;1.30;;;0.93;;
7158;SDS011;63175;52.374;13.132;2023-02-24T14:24:17;2.03;;;1.20;;
7158;SDS011;63175;52.374;13.132;2023-02-24T14:26:45;3.70;;;0.90;;
7158;SDS011;63175;52.374;13.132;2023-02-24T14:29:15;1.37;;;1.20;;
7158;SDS011;63175;52.374;13.132;2023-02-24T14:31:48;0.90;;;0.80;;
7158;SDS011;63175;52.374;13.132;2023-02-24T14:34:20;2.90;;;0.80;;
7158;SDS011;63175;52.374;13.132;2023-02-24T14:36:50;1.20;;;0.87;;
7158;SDS011;63175;52.374;13.132;2023-02-24T14:39:19;0.70;;;0.70;;
7158;SDS011;63175;52.374;13.132;2023-02-24T14:41:47;2.30;;;0.80;;
7158;SDS011;63175;52.374;13.132;2023-02-24T14:44:16;4.60;;;1.03;;
7158;SDS011;63175;52.374;13.132;2023-02-24T14:46:45;0.87;;;0.73;;
7158;SDS011;63175;52.374;13.132;2023-02-24T14:49:15;0.90;;;0.70;;
7158;SDS011;63175;52.374;13.132;2023-02-24T14:51:46;0.80;;;0.80;;
7158;SDS011;63175;52.374;13.132;2023-02-24T14:54:17;1.37;;;0.63;;
7158;SDS011;63175;52.374;13.132;2023-02-24T14:56:49;1.93;;;0.90;;
7158;SDS011;63175;52.374;13.132;2023-02-24T14:59:18;2.13;;;0.87;;
7158;SDS011;63175;52.374;13.132;2023-02-24T15:01:53;0.60;;;0.60;;
7158;SDS011;63175;52.374;13.132;2023-02-24T15:04:24;0.87;;;0.87;;
7158;SDS011;63175;52.374;13.132;2023-02-24T15:06:58;1.17;;;0.77;;
7158;SDS011;63175;52.374;13.132;2023-02-24T15:09:28;0.77;;;0.77;;
7158;SDS011;63175;52.374;13.132;2023-02-24T15:12:05;2.17;;;0.90;;
7158;SDS011;63175;52.374;13.132;2023-02-24T15:14:36;0.83;;;0.83;;
7158;SDS011;63175;52.374;13.132;2023-02-24T15:17:07;2.23;;;0.90;;
7158;SDS011;63175;52.374;13.132;2023-02-24T15:19:41;1.27;;;0.90;;